Time;durP1;ratioP1;P1;durP2;ratioP2;P2;SDS_P1;SDS_P2;PMS_P1;PMS_P2;Temp;Humidity;BMP_temperature;BMP_pressure;BME280_temperature;BME280_humidity;BME280_pressure;Samples;Min_cycle;Max_cycle;Signal;HPM_P1;HPM_P2
2022/08/24 00:02:10;;;;;;;8.00;2.97;;;25.30;67.00;;;;;;5054320;28;20281;-94
2022/08/24 00:04:37;;;;;;;7.53;2.77;;;25.30;67.20;;;;;;5054613;28;20273;-94
2022/08/24 00:07:07;;;;;;;12.53;4.83;;;25.30;67.00;;;;;;5054188;28;20215;-93
2022/08/24 00:09:36;;;;;;;11.23;4.47;;;25.20;67.20;;;;;;5054944;28;20882;-95
2022/08/24 00:12:06;;;;;;;5.83;2.97;;;25.20;67.30;;;;;;5054321;28;20212;-95
2022/08/24 00:14:35;;;;;;;5.40;2.60;;;25.20;67.50;;;;;;5063252;28;20200;-94
2022/08/24 00:17:04;;;;;;;7.50;3.10;;;25.10;67.50;;;;;;5053515;28;20192;-94
2022/08/24 00:19:36;;;;;;;7.10;3.40;;;25.10;68.20;;;;;;5053841;28;20204;-93
2022/08/24 00:22:03;;;;;;;9.77;3.93;;;25.10;68.10;;;;;;5054010;28;20637;-95
2022/08/24 00:24:31;;;;;;;17.00;6.40;;;25.10;67.90;;;;;;5065629;28;20258;-94
2022/08/24 00:27:05;;;;;;;9.27;3.47;;;25.10;67.90;;;;;;5060986;28;20661;-94
2022/08/24 00:29:32;;;;;;;10.10;4.20;;;25.00;68.30;;;;;;5061025;28;20207;-95
2022/08/24 00:32:00;;;;;;;6.60;3.00;;;25.00;68.30;;;;;;5081935;28;20211;-95
2022/08/24 00:34:30;;;;;;;12.47;4.70;;;25.00;68.30;;;;;;5061290;28;20196;-93
2022/08/24 00:37:01;;;;;;;6.77;2.90;;;25.00;68.70;;;;;;5056251;28;20691;-94
2022/08/24 00:39:31;;;;;;;10.57;4.23;;;25.00;68.60;;;;;;5055980;28;20249;-93
2022/08/24 00:42:26;;;;;;;6.63;2.83;;;25.00;68.60;;;;;;5068399;28;20565;-93
2022/08/24 00:44:54;;;;;;;9.17;3.83;;;24.90;68.70;;;;;;5068723;28;20203;-93
2022/08/24 00:47:41;;;;;;;9.90;3.93;;;24.90;68.40;;;;;;5057672;28;20211;-94
2022/08/24 00:50:13;;;;;;;8.47;3.40;;;24.90;69.30;;;;;;5062004;28;20324;-94
2022/08/24 00:52:49;;;;;;;8.97;3.70;;;24.90;68.50;;;;;;5056776;28;20270;-94
2022/08/24 00:55:19;;;;;;;8.13;3.47;;;24.90;68.70;;;;;;5064509;28;20923;-94
2022/08/24 00:57:50;;;;;;;9.83;4.43;;;24.90;68.70;;;;;;5065339;28;20207;-94
2022/08/24 01:00:23;;;;;;;10.07;4.40;;;24.90;68.80;;;;;;5055714;28;20223;-95
2022/08/24 01:02:57;;;;;;;7.13;3.27;;;24.80;68.80;;;;;;5060404;28;20272;-95
2022/08/24 01:05:28;;;;;;;14.43;5.57;;;24.80;69.00;;;;;;5068777;28;20225;-95
2022/08/24 01:07:57;;;;;;;9.50;3.73;;;24.80;69.00;;;;;;5050842;28;20349;-95
2022/08/24 01:10:27;;;;;;;17.70;6.57;;;24.80;69.40;;;;;;5050215;28;20254;-95
2022/08/24 01:13:01;;;;;;;13.20;5.07;;;24.80;69.00;;;;;;5067661;28;20541;-95
2022/08/24 01:15:29;;;;;;;12.33;4.67;;;24.80;68.80;;;;;;5070114;28;20195;-95
2022/08/24 01:20:53;;;;;;;7.30;3.33;;;24.70;68.80;;;;;;5053970;28;20230;-94
2022/08/24 01:23:36;;;;;;;6.33;3.13;;;24.80;69.50;;;;;;5062249;28;20291;-94
2022/08/24 01:26:03;;;;;;;5.63;2.73;;;24.70;69.50;;;;;;5052308;28;20671;-94
2022/08/24 01:28:30;;;;;;;7.83;3.67;;;24.70;69.80;;;;;;5074995;28;20224;-94
2022/08/24 01:30:58;;;;;;;13.63;4.47;;;24.70;69.40;;;;;;5078471;28;20197;-94
2022/08/24 01:33:27;;;;;;;8.33;3.80;;;24.60;69.40;;;;;;5079473;28;20187;-95
2022/08/24 01:35:59;;;;;;;10.47;3.63;;;24.60;69.70;;;;;;5072710;28;20234;-93
2022/08/24 01:38:36;;;;;;;5.67;2.63;;;24.60;70.00;;;;;;5057032;28;20197;-95
2022/08/24 01:41:06;;;;;;;6.43;3.03;;;24.60;70.10;;;;;;5055529;28;20227;-93
2022/08/24 01:43:35;;;;;;;8.60;2.67;;;24.50;69.30;;;;;;5069448;28;20628;-94
2022/08/24 01:46:05;;;;;;;6.50;3.17;;;24.60;69.20;;;;;;5072923;28;20199;-93
2022/08/24 01:48:32;;;;;;;10.33;4.33;;;24.50;69.40;;;;;;5070232;28;20203;-95
2022/08/24 01:51:06;;;;;;;4.40;2.40;;;24.50;69.40;;;;;;5068450;28;20974;-94
2022/08/24 01:53:36;;;;;;;6.53;2.73;;;24.50;70.10;;;;;;5059437;28;20573;-94
2022/08/24 01:56:04;;;;;;;7.90;3.10;;;24.50;69.90;;;;;;5054317;28;20208;-95
2022/08/24 01:58:50;;;;;;;6.70;3.03;;;24.40;69.60;;;;;;5071690;28;20207;-94
2022/08/24 02:01:18;;;;;;;6.37;2.70;;;24.40;69.70;;;;;;5055276;28;20262;-94
2022/08/24 02:03:46;;;;;;;11.67;4.50;;;24.30;69.50;;;;;;5052520;28;20237;-94
2022/08/24 02:06:15;;;;;;;9.63;3.63;;;24.30;69.80;;;;;;5057173;28;20207;-94
2022/08/24 02:08:43;;;;;;;10.63;3.90;;;24.30;70.00;;;;;;5072956;28;20203;-93
2022/08/24 02:11:12;;;;;;;4.97;2.70;;;24.20;70.30;;;;;;5077379;28;20194;-94
2022/08/24 02:13:43;;;;;;;4.67;2.60;;;24.20;70.30;;;;;;5065821;28;20616;-94
2022/08/24 02:16:10;;;;;;;6.53;2.87;;;24.10;70.50;;;;;;5058284;28;20199;-93
2022/08/24 02:18:39;;;;;;;8.67;3.80;;;24.20;70.40;;;;;;5065930;28;20205;-93
2022/08/24 02:21:07;;;;;;;9.97;3.20;;;24.10;70.70;;;;;;5051213;28;20256;-93
2022/08/24 02:23:36;;;;;;;7.40;3.03;;;24.10;70.70;;;;;;5051375;28;20194;-94
2022/08/24 02:26:05;;;;;;;7.53;2.87;;;24.10;70.80;;;;;;5067031;28;20280;-95
2022/08/24 02:28:32;;;;;;;8.40;3.60;;;24.10;70.90;;;;;;5060463;28;20196;-93
2022/08/24 02:31:04;;;;;;;8.50;3.47;;;24.10;70.80;;;;;;5059465;28;20210;-94
2022/08/24 02:33:32;;;;;;;11.10;4.10;;;24.10;71.70;;;;;;5055558;28;20228;-94
2022/08/24 02:35:59;;;;;;;8.97;3.83;;;24.00;70.60;;;;;;5051343;28;20223;-94
2022/08/24 02:38:26;;;;;;;12.63;4.60;;;24.00;70.10;;;;;;5064068;28;20254;-94
2022/08/24 02:40:55;;;;;;;13.57;4.87;;;24.00;70.20;;;;;;5073266;28;20296;-94
2022/08/24 02:43:33;;;;;;;8.60;3.63;;;24.00;70.60;;;;;;5062190;28;20223;-94
2022/08/24 02:46:01;;;;;;;7.87;3.40;;;24.00;71.00;;;;;;5061773;28;20205;-92
2022/08/24 02:51:19;;;;;;;5.07;2.50;;;24.00;70.90;;;;;;5063381;28;20260;-93
2022/08/24 02:53:49;;;;;;;7.70;3.47;;;24.00;71.70;;;;;;5075400;28;20702;-94
2022/08/24 02:56:17;;;;;;;7.37;3.47;;;23.90;71.60;;;;;;5069506;28;20268;-93
2022/08/24 02:58:47;;;;;;;6.37;2.83;;;23.90;71.50;;;;;;5063818;28;20202;-93
2022/08/24 03:01:16;;;;;;;5.87;2.90;;;23.90;71.70;;;;;;5057724;28;20792;-94
2022/08/24 03:03:45;;;;;;;8.00;2.97;;;23.90;71.50;;;;;;5055061;28;20196;-94
2022/08/24 03:06:13;;;;;;;6.20;2.50;;;23.90;71.40;;;;;;5069422;28;20498;-93
2022/08/24 03:08:43;;;;;;;12.50;4.73;;;23.90;71.40;;;;;;5054961;28;20279;-94
2022/08/24 03:11:10;;;;;;;15.83;5.83;;;23.80;71.40;;;;;;5069562;28;20219;-93
2022/08/24 03:13:40;;;;;;;8.73;2.97;;;23.80;72.30;;;;;;5062601;28;20725;-94
2022/08/24 03:16:09;;;;;;;12.00;4.63;;;23.80;71.60;;;;;;5074212;28;20201;-93
2022/08/24 03:18:38;;;;;;;9.87;3.67;;;23.80;71.40;;;;;;5074751;28;20218;-93
2022/08/24 03:21:05;;;;;;;5.60;2.67;;;23.80;71.50;;;;;;5073438;28;20229;-94
2022/08/24 03:23:35;;;;;;;7.17;3.03;;;23.80;71.30;;;;;;5058819;28;20208;-93
2022/08/24 03:26:02;;;;;;;7.03;2.73;;;23.80;71.60;;;;;;5054061;28;20211;-93
2022/08/24 03:28:30;;;;;;;7.33;3.10;;;23.70;71.20;;;;;;5065877;28;20213;-93
2022/08/24 03:30:57;;;;;;;8.63;3.23;;;23.70;71.40;;;;;;5067601;28;20206;-93
2022/08/24 03:33:26;;;;;;;7.10;3.13;;;23.70;71.50;;;;;;5055857;28;20204;-94
2022/08/24 03:35:53;;;;;;;5.63;2.17;;;23.70;71.80;;;;;;5054070;28;20220;-95
2022/08/24 03:38:27;;;;;;;9.70;3.93;;;23.70;71.40;;;;;;5054417;28;20211;-93
2022/08/24 03:40:57;;;;;;;8.63;3.33;;;23.60;72.00;;;;;;5057339;28;20679;-94
2022/08/24 03:46:11;;;;;;;9.23;3.90;;;23.60;72.00;;;;;;5052604;28;20207;-94
2022/08/24 03:48:52;;;;;;;7.70;3.57;;;23.60;71.90;;;;;;5052249;28;20219;-94
2022/08/24 03:51:23;;;;;;;7.90;3.50;;;23.60;72.50;;;;;;5053577;28;20413;-95
2022/08/24 03:53:51;;;;;;;7.17;3.30;;;23.60;72.10;;;;;;5056289;28;20200;-95
2022/08/24 03:56:18;;;;;;;12.83;4.90;;;23.50;72.70;;;;;;5060358;22;20217;-94
2022/08/24 03:58:49;;;;;;;6.63;2.80;;;23.50;71.90;;;;;;5033139;28;20228;-95
2022/08/24 04:01:18;;;;;;;10.77;4.47;;;23.40;72.10;;;;;;5034179;28;20259;-95
2022/08/24 04:04:05;;;;;;;8.30;3.43;;;23.40;72.00;;;;;;5030832;28;20295;-95
2022/08/24 04:06:34;;;;;;;8.60;3.63;;;23.40;72.70;;;;;;5032183;28;20228;-94
2022/08/24 04:09:07;;;;;;;6.37;3.07;;;23.40;72.50;;;;;;5034347;28;20212;-95
2022/08/24 04:11:35;;;;;;;6.20;3.27;;;23.40;72.90;;;;;;5026813;28;20649;-94
2022/08/24 04:14:21;;;;;;;10.00;3.83;;;23.30;72.20;;;;;;5032973;28;20640;-95
2022/08/24 04:16:48;;;;;;;6.27;2.87;;;23.30;72.40;;;;;;5034381;28;20212;-95
2022/08/24 04:19:21;;;;;;;5.93;2.80;;;23.30;72.20;;;;;;5024213;28;20236;-95
2022/08/24 04:21:49;;;;;;;8.60;3.43;;;23.30;72.40;;;;;;5015162;28;20287;-95
2022/08/24 04:24:30;;;;;;;5.23;2.53;;;23.20;72.40;;;;;;5031388;28;20302;-93
2022/08/24 04:26:57;;;;;;;7.73;3.53;;;23.30;72.90;;;;;;5033136;28;20201;-95
2022/08/24 04:29:27;;;;;;;12.77;4.17;;;23.20;72.80;;;;;;5016533;28;20271;-95
2022/08/24 04:31:54;;;;;;;8.63;3.57;;;23.20;72.90;;;;;;5036865;28;20208;-95
2022/08/24 04:34:23;;;;;;;10.07;3.80;;;23.20;72.70;;;;;;5036353;28;20268;-96
2022/08/24 04:36:54;;;;;;;14.97;5.47;;;23.20;73.00;;;;;;5032563;28;20198;-94
2022/08/24 04:39:43;;;;;;;7.97;3.80;;;23.10;73.30;;;;;;5035063;28;20213;-94
2022/08/24 04:42:10;;;;;;;10.80;4.40;;;23.10;74.00;;;;;;5042106;28;20251;-92
2022/08/24 04:44:38;;;;;;;10.20;4.30;;;23.20;72.90;;;;;;5043403;28;20256;-95
2022/08/24 04:47:07;;;;;;;9.83;4.13;;;23.10;73.20;;;;;;5043435;28;20197;-93
2022/08/24 04:49:38;;;;;;;9.90;3.97;;;23.10;73.50;;;;;;5029729;28;20233;-95
2022/08/24 04:52:08;;;;;;;11.97;5.03;;;23.10;74.00;;;;;;5021805;28;20838;-94
2022/08/24 04:54:35;;;;;;;16.23;6.07;;;23.00;74.10;;;;;;5032653;28;20256;-95
2022/08/24 04:57:04;;;;;;;11.50;4.80;;;23.00;74.10;;;;;;5033580;28;20228;-95
2022/08/24 04:59:32;;;;;;;12.23;4.77;;;23.00;74.60;;;;;;5028851;28;20592;-95
2022/08/24 05:01:59;;;;;;;8.83;4.20;;;23.00;74.60;;;;;;5032421;28;20233;-96
2022/08/24 05:07:10;;;;;;;5.77;2.97;;;23.00;74.60;;;;;;5014089;28;20209;-95
2022/08/24 05:09:40;;;;;;;7.07;2.90;;;22.90;75.50;;;;;;5015443;28;20288;-95
2022/08/24 05:14:54;;;;;;;7.23;3.33;;;22.90;74.60;;;;;;5015294;28;20207;-95
2022/08/24 05:17:21;;;;;;;4.87;2.50;;;22.90;74.90;;;;;;5014997;28;20206;-95
2022/08/24 05:19:50;;;;;;;6.10;3.03;;;22.90;75.00;;;;;;5014462;28;20650;-95
2022/08/24 05:22:23;;;;;;;5.93;3.23;;;22.90;75.40;;;;;;5014313;28;20218;-95
2022/08/24 05:24:53;;;;;;;8.87;3.87;;;22.90;75.70;;;;;;5014999;28;20201;-94
2022/08/24 05:27:22;;;;;;;7.17;2.93;;;22.90;74.80;;;;;;5013063;28;20205;-96
2022/08/24 05:29:55;;;;;;;7.20;2.90;;;22.90;75.70;;;;;;5014641;28;20209;-95
2022/08/24 05:32:25;;;;;;;5.07;2.60;;;22.90;75.00;;;;;;5013472;28;20301;-95
2022/08/24 05:34:53;;;;;;;6.40;2.97;;;22.90;74.50;;;;;;5014596;28;20308;-94
2022/08/24 05:37:26;;;;;;;8.17;3.30;;;22.90;74.60;;;;;;5012627;28;20205;-95
2022/08/24 05:39:57;;;;;;;6.77;3.27;;;22.90;75.40;;;;;;5013531;28;20667;-95
2022/08/24 05:42:25;;;;;;;10.57;4.87;;;22.90;75.10;;;;;;5013057;28;20668;-96
2022/08/24 05:44:54;;;;;;;6.27;3.37;;;22.90;75.50;;;;;;5004373;28;20231;-94
2022/08/24 05:47:22;;;;;;;8.67;4.07;;;22.90;75.70;;;;;;5011102;28;20207;-95
2022/08/24 05:49:52;;;;;;;16.43;6.73;;;22.90;76.50;;;;;;5012235;28;20291;-95
2022/08/24 05:52:26;;;;;;;9.67;4.73;;;22.90;76.30;;;;;;5011168;28;20665;-95
2022/08/24 05:55:23;;;;;;;12.53;5.47;;;22.90;76.70;;;;;;5008059;28;20205;-94
2022/08/24 05:57:51;;;;;;;13.57;6.03;;;22.90;77.50;;;;;;5003612;28;20244;-95
2022/08/24 06:00:22;;;;;;;10.20;4.63;;;22.90;77.10;;;;;;5012886;28;20200;-95
2022/08/24 06:02:51;;;;;;;13.83;5.60;;;22.90;77.10;;;;;;5007141;28;20228;-95
2022/08/24 06:05:24;;;;;;;8.07;4.73;;;23.00;77.40;;;;;;5011600;28;20203;-95
2022/08/24 06:08:05;;;;;;;8.67;4.20;;;23.00;78.20;;;;;;5012354;28;20201;-95
2022/08/24 06:10:32;;;;;;;7.70;3.97;;;23.00;78.90;;;;;;5014213;28;20205;-95
2022/08/24 06:13:01;;;;;;;9.37;5.17;;;23.00;78.20;;;;;;5013538;28;20555;-95
2022/08/24 06:15:30;;;;;;;12.13;5.87;;;23.10;78.70;;;;;;5011361;28;20208;-95
2022/08/24 06:17:58;;;;;;;7.77;4.60;;;23.10;79.10;;;;;;5011987;28;20210;-95
2022/08/24 06:20:26;;;;;;;9.70;4.60;;;23.10;79.00;;;;;;5012862;28;20229;-96
2022/08/24 06:22:58;;;;;;;8.00;5.00;;;23.10;79.00;;;;;;5016633;28;20260;-94
2022/08/24 06:28:10;;;;;;;9.77;4.73;;;23.20;79.40;;;;;;5017093;28;20304;-96
2022/08/24 06:30:38;;;;;;;8.13;4.70;;;23.20;79.70;;;;;;5017295;28;20229;-95
2022/08/24 06:33:08;;;;;;;5.93;3.63;;;23.30;79.80;;;;;;5017184;28;20249;-95
2022/08/24 06:35:36;;;;;;;9.90;5.20;;;23.30;80.60;;;;;;5017078;28;20223;-95
2022/08/24 06:38:05;;;;;;;7.13;4.00;;;23.30;80.20;;;;;;5016335;28;20266;-94
2022/08/24 06:40:34;;;;;;;10.77;5.13;;;23.40;80.60;;;;;;5015487;28;20221;-95
2022/08/24 06:43:05;;;;;;;9.07;4.37;;;23.40;80.70;;;;;;5017136;28;20293;-95
2022/08/24 06:45:33;;;;;;;8.93;4.90;;;23.40;80.90;;;;;;5018152;28;20284;-95
2022/08/24 06:48:04;;;;;;;6.60;4.03;;;23.50;80.80;;;;;;5016732;28;20975;-96
2022/08/24 06:50:31;;;;;;;8.93;4.90;;;23.50;81.50;;;;;;5016457;28;20198;-96
2022/08/24 06:53:00;;;;;;;9.43;5.23;;;23.50;81.20;;;;;;5017037;28;20199;-95
2022/08/24 06:55:29;;;;;;;12.37;5.30;;;23.60;81.70;;;;;;5016401;28;20223;-94
2022/08/24 06:57:56;;;;;;;11.33;5.33;;;23.60;82.20;;;;;;5016593;28;20221;-95
2022/08/24 07:00:24;;;;;;;11.37;5.30;;;23.70;82.20;;;;;;5017971;28;21055;-94
2022/08/24 07:03:05;;;;;;;11.07;4.80;;;23.80;82.90;;;;;;5016527;28;20252;-95
2022/08/24 07:05:33;;;;;;;13.83;6.03;;;23.80;83.60;;;;;;5024160;28;20276;-95
2022/08/24 07:08:05;;;;;;;10.17;4.80;;;23.80;82.90;;;;;;5022336;28;20675;-95
2022/08/24 07:10:37;;;;;;;9.53;4.80;;;23.90;84.00;;;;;;5017614;28;20656;-95
2022/08/24 07:13:05;;;;;;;7.77;4.23;;;24.00;84.30;;;;;;5013810;28;20198;-95
2022/08/24 07:15:35;;;;;;;11.13;5.17;;;24.00;83.80;;;;;;5013291;28;20199;-95
2022/08/24 07:18:08;;;;;;;13.93;6.13;;;24.10;84.20;;;;;;5017597;28;20201;-94
2022/08/24 07:20:36;;;;;;;14.10;6.13;;;24.10;84.20;;;;;;5025085;28;20212;-94
2022/08/24 07:23:07;;;;;;;8.57;4.37;;;24.20;83.70;;;;;;5011800;28;20244;-94
2022/08/24 07:25:37;;;;;;;9.07;4.73;;;24.30;84.50;;;;;;5011626;28;20689;-95
2022/08/24 07:28:05;;;;;;;9.03;4.30;;;24.30;84.10;;;;;;5012061;28;20230;-95
2022/08/24 07:30:34;;;;;;;10.30;4.47;;;24.40;84.50;;;;;;5016500;28;20689;-94
2022/08/24 07:33:01;;;;;;;6.97;3.57;;;24.50;84.40;;;;;;5011429;28;20228;-95
2022/08/24 07:35:35;;;;;;;4.80;2.50;;;24.50;84.00;;;;;;5013853;28;20240;-94
2022/08/24 07:38:04;;;;;;;6.83;3.13;;;24.60;84.40;;;;;;5029144;28;20228;-94
2022/08/24 07:40:39;;;;;;;5.27;2.60;;;24.70;83.40;;;;;;5030877;28;20209;-94
2022/08/24 07:43:16;;;;;;;8.70;3.70;;;24.80;83.80;;;;;;5017769;28;20221;-94
2022/08/24 07:45:45;;;;;;;9.43;3.87;;;24.80;83.40;;;;;;5011921;28;20217;-95
2022/08/24 07:48:13;;;;;;;7.77;3.50;;;24.90;83.30;;;;;;5015593;28;20241;-95
2022/08/24 07:50:41;;;;;;;5.67;2.20;;;25.00;82.80;;;;;;5015766;28;20255;-95
2022/08/24 07:53:11;;;;;;;7.70;3.13;;;25.00;82.20;;;;;;5015921;28;20197;-95
2022/08/24 07:55:40;;;;;;;8.80;3.53;;;25.10;81.80;;;;;;5013702;28;20304;-96
2022/08/24 07:58:08;;;;;;;7.10;2.80;;;25.20;81.70;;;;;;5016240;28;20934;-93
2022/08/24 08:00:35;;;;;;;6.17;2.40;;;25.30;82.10;;;;;;5015808;28;20202;-93
2022/08/24 08:03:05;;;;;;;5.53;2.23;;;25.30;80.80;;;;;;5013778;28;20328;-95
2022/08/24 08:05:42;;;;;;;5.17;2.33;;;25.40;80.50;;;;;;5021670;28;20244;-95
2022/08/24 08:08:15;;;;;;;10.10;3.93;;;25.50;80.40;;;;;;5010458;28;20669;-96
2022/08/24 08:10:45;;;;;;;5.53;2.43;;;25.50;80.00;;;;;;5007446;28;20638;-96
2022/08/24 08:13:18;;;;;;;5.23;2.33;;;25.60;80.10;;;;;;5018224;28;20643;-94
2022/08/24 08:15:46;;;;;;;13.37;4.17;;;25.60;80.10;;;;;;5017729;28;20268;-96
2022/08/24 08:18:16;;;;;;;4.67;2.20;;;25.60;80.00;;;;;;5006796;28;20213;-96
2022/08/24 08:20:46;;;;;;;5.70;2.73;;;25.70;80.20;;;;;;5006221;28;20210;-96
2022/08/24 08:26:01;;;;;;;5.23;2.53;;;25.80;79.90;;;;;;5015087;28;20217;-96
2022/08/24 08:28:32;;;;;;;6.63;3.23;;;25.90;80.70;;;;;;5010801;28;20205;-95
2022/08/24 08:31:00;;;;;;;9.47;3.43;;;26.00;80.40;;;;;;5017232;28;20538;-96
2022/08/24 08:33:28;;;;;;;9.13;3.53;;;26.10;79.50;;;;;;5018652;28;20208;-95
2022/08/24 08:36:06;;;;;;;5.47;2.33;;;26.20;79.50;;;;;;4998309;28;20289;-95
2022/08/24 08:38:36;;;;;;;7.47;3.23;;;26.20;79.40;;;;;;5004971;28;20260;-96
2022/08/24 08:41:42;;;;;;;9.00;2.70;;;26.40;79.50;;;;;;5014962;28;20209;-96
2022/08/24 08:44:17;;;;;;;3.90;1.93;;;26.50;79.30;;;;;;5014742;28;20239;-96
2022/08/24 08:46:55;;;;;;;5.73;2.47;;;26.60;78.50;;;;;;5017193;28;20212;-96
2022/08/24 08:49:57;;;;;;;6.27;2.70;;;26.70;78.10;;;;;;5016523;28;20221;-94
2022/08/24 08:52:53;;;;;;;4.70;2.23;;;26.80;77.70;;;;;;5000822;28;20207;-96
2022/08/24 08:55:31;;;;;;;7.00;2.97;;;27.00;77.40;;;;;;4998210;28;20206;-95
2022/08/24 08:58:14;;;;;;;4.13;2.20;;;27.10;77.30;;;;;;5014665;28;20233;-95
2022/08/24 09:00:55;;;;;;;8.90;2.83;;;27.20;76.70;;;;;;5018268;28;20300;-96
2022/08/24 09:04:15;;;;;;;7.03;3.10;;;27.40;76.20;;;;;;5019003;28;20225;-95
2022/08/24 09:07:21;;;;;;;5.30;1.83;;;27.50;76.00;;;;;;5020335;28;20201;-96
2022/08/24 09:10:03;;;;;;;8.20;3.37;;;27.60;75.50;;;;;;5013911;28;20256;-95
2022/08/24 09:15:54;;;;;;;3.47;2.03;;;27.80;74.20;;;;;;5028429;28;20211;-95
2022/08/24 09:18:36;;;;;;;4.93;2.40;;;27.90;73.10;;;;;;5023687;28;20186;-96
2022/08/24 09:21:34;;;;;;;4.63;2.30;;;28.00;73.30;;;;;;5021321;28;20201;-95
2022/08/24 09:27:37;;;;;;;3.50;2.00;;;28.20;73.20;;;;;;5012463;28;20569;-96
2022/08/24 09:30:11;;;;;;;4.03;2.53;;;28.30;73.40;;;;;;5020240;28;20201;-95
2022/08/24 09:33:05;;;;;;;4.47;2.70;;;28.40;73.20;;;;;;5017798;28;20220;-95
2022/08/24 09:35:56;;;;;;;4.63;2.60;;;28.50;72.30;;;;;;5013924;28;20205;-95
2022/08/24 09:38:58;;;;;;;8.37;3.50;;;28.60;72.20;;;;;;5019212;28;20263;-95
2022/08/24 09:42:00;;;;;;;5.67;2.67;;;28.70;71.60;;;;;;5012424;28;20291;-96
2022/08/24 09:45:12;;;;;;;4.40;2.53;;;28.80;72.40;;;;;;5012638;28;20228;-94
2022/08/24 09:48:09;;;;;;;7.03;3.13;;;29.00;71.60;;;;;;5013331;28;20220;-95
2022/08/24 09:51:14;;;;;;;5.33;2.50;;;29.10;70.40;;;;;;4992430;28;20201;-95
2022/08/24 09:54:28;;;;;;;6.47;3.03;;;29.30;71.10;;;;;;5013287;28;20209;-94
2022/08/24 09:57:16;;;;;;;7.60;3.70;;;29.40;70.60;;;;;;4953022;29;20219;-95
2022/08/24 10:00:07;;;;;;;6.63;3.23;;;29.60;70.90;;;;;;5015418;28;20209;-95
2022/08/24 10:02:49;;;;;;;4.57;2.60;;;29.70;69.30;;;;;;5019552;28;20200;-93
2022/08/24 10:05:28;;;;;;;4.70;2.73;;;29.90;70.80;;;;;;5023042;28;20209;-94
2022/08/24 10:08:04;;;;;;;7.83;4.00;;;30.00;68.80;;;;;;5021881;28;20208;-95
2022/08/24 10:10:42;;;;;;;3.77;2.17;;;30.10;69.00;;;;;;5027925;28;20193;-95
2022/08/24 10:13:23;;;;;;;4.17;2.53;;;30.30;69.60;;;;;;5024852;28;20658;-96
2022/08/24 10:16:16;;;;;;;7.00;3.42;;;30.40;67.70;;;;;;5021431;28;20211;-94
2022/08/24 10:18:56;;;;;;;4.63;2.90;;;30.50;68.00;;;;;;5016497;28;20292;-95
2022/08/24 10:21:37;;;;;;;7.37;3.87;;;30.60;66.90;;;;;;5020233;28;20205;-94
2022/08/24 10:24:28;;;;;;;5.20;3.33;;;30.70;66.30;;;;;;5020121;28;20217;-94
2022/08/24 10:27:08;;;;;;;7.25;3.55;;;30.90;66.10;;;;;;5016425;28;20229;-95
2022/08/24 10:30:24;;;;;;;6.65;3.50;;;31.00;66.10;;;;;;5017273;28;20205;-94
2022/08/24 10:33:09;;;;;;;5.95;2.88;;;31.10;65.50;;;;;;4942833;29;20574;-96
2022/08/24 10:36:09;;;;;;;7.80;3.33;;;31.40;64.80;;;;;;5142782;22;20238;-95
2022/08/24 10:46:01;;;;;;;6.93;3.63;;;32.00;62.60;;;;;;4936326;28;20250;-95
2022/08/24 10:51:05;;;;;;;3.08;2.17;;;32.40;61.70;;;;;;5023621;22;20287;-95
2022/08/24 10:53:34;;;;;;;5.43;3.15;;;32.50;61.70;;;;;;5005053;28;20763;-96
2022/08/24 10:56:08;;;;;;;5.63;3.53;;;32.60;61.40;;;;;;5012750;28;20233;-96
2022/08/24 10:58:46;;;;;;;4.90;3.28;;;32.70;59.50;;;;;;5013833;28;20769;-95
2022/08/24 11:01:30;;;;;;;7.25;3.70;;;32.90;59.50;;;;;;5017135;28;20202;-95
2022/08/24 11:04:08;;;;;;;4.80;3.08;;;33.00;59.30;;;;;;5006935;28;20214;-94
2022/08/24 11:06:40;;;;;;;5.18;3.25;;;33.10;58.90;;;;;;5013317;28;20288;-95
2022/08/24 11:09:11;;;;;;;5.82;3.25;;;33.20;59.00;;;;;;5000961;28;20201;-96
2022/08/24 11:11:49;;;;;;;4.45;2.88;;;33.40;59.10;;;;;;5015399;28;20252;-96
2022/08/24 11:14:41;;;;;;;6.03;3.15;;;33.50;58.80;;;;;;5014489;28;20263;-95
2022/08/24 11:20:50;;;;;;;3.90;2.47;;;33.90;57.40;;;;;;5016995;28;20217;-96
2022/08/24 11:23:20;;;;;;;10.82;4.45;;;34.00;57.70;;;;;;5019106;28;20233;-93
2022/08/24 11:26:00;;;;;;;5.50;3.03;;;34.20;57.20;;;;;;5024641;28;20218;-94
2022/08/24 11:28:32;;;;;;;7.60;4.53;;;34.30;56.00;;;;;;5027829;28;20608;-95
2022/08/24 11:31:54;;;;;;;4.93;3.00;;;34.40;56.10;;;;;;5022438;28;20193;-95
2022/08/24 11:34:34;;;;;;;6.22;2.42;;;34.50;56.00;;;;;;5035151;28;20216;-96
2022/08/24 11:37:03;;;;;;;6.47;3.53;;;34.60;55.30;;;;;;5025797;28;20209;-95
2022/08/24 11:39:36;;;;;;;8.02;2.63;;;34.60;55.80;;;;;;5016182;28;20658;-95
2022/08/24 11:42:24;;;;;;;7.70;2.10;;;34.70;55.40;;;;;;5016854;28;20304;-95
2022/08/24 11:45:00;;;;;;;4.50;2.53;;;34.90;54.00;;;;;;5015391;28;20233;-96
2022/08/24 11:48:03;;;;;;;4.50;1.83;;;35.00;54.70;;;;;;5004738;28;20230;-95
2022/08/24 11:50:39;;;;;;;5.57;2.88;;;35.20;53.80;;;;;;4973405;28;20243;-95
2022/08/24 11:53:36;;;;;;;5.22;2.80;;;35.30;53.10;;;;;;5013581;28;20217;-95
2022/08/24 11:56:14;;;;;;;5.40;2.78;;;35.50;53.30;;;;;;5014734;28;20216;-95
2022/08/24 11:58:50;;;;;;;5.32;2.60;;;35.60;52.60;;;;;;5016092;28;20213;-96
2022/08/24 12:01:26;;;;;;;4.93;3.15;;;35.70;52.60;;;;;;5014943;28;20204;-95
2022/08/24 12:04:23;;;;;;;4.68;2.45;;;35.80;52.30;;;;;;5013948;28;20283;-95
2022/08/24 12:07:02;;;;;;;5.40;3.42;;;35.90;51.30;;;;;;5016713;28;20244;-96
2022/08/24 12:09:57;;;;;;;6.05;3.45;;;35.90;51.30;;;;;;5016374;28;20301;-96
2022/08/24 12:13:08;;;;;;;;;;;;;;;;;;;;;
2022/08/24 12:15:43;;;;;;;5.32;3.20;;;35.90;50.50;;;;;;5013019;28;20207;-96
2022/08/24 12:18:21;;;;;;;5.47;3.35;;;35.90;50.50;;;;;;5012161;28;20208;-95
2022/08/24 12:20:50;;;;;;;6.13;2.95;;;35.90;50.80;;;;;;5013661;28;20551;-93
2022/08/24 12:23:24;;;;;;;5.65;3.03;;;35.90;51.80;;;;;;5015074;28;20206;-96
2022/08/24 12:26:22;;;;;;;5.55;3.15;;;35.90;51.50;;;;;;5017250;28;20299;-93
2022/08/24 12:29:06;;;;;;;6.70;3.45;;;35.80;51.20;;;;;;4983864;28;20205;-95
2022/08/24 12:34:32;;;;;;;4.93;2.75;;;35.80;51.50;;;;;;5008834;28;20216;-95
2022/08/24 12:37:23;;;;;;;4.28;2.53;;;35.80;51.60;;;;;;5012522;28;20220;-95
2022/08/24 12:40:40;;;;;;;;;;;;;;;;;;;;;
2022/08/24 12:43:18;;;;;;;5.07;3.08;;;35.70;51.40;;;;;;5007476;28;20209;-93
2022/08/24 12:45:48;;;;;;;8.88;4.50;;;35.80;51.40;;;;;;5000490;28;20232;-95
2022/08/24 12:48:52;;;;;;;7.35;3.30;;;35.80;51.50;;;;;;5007789;28;20341;-92
2022/08/24 12:51:24;;;;;;;5.60;2.88;;;35.80;51.30;;;;;;5012420;28;20205;-95
2022/08/24 12:54:13;;;;;;;6.07;3.50;;;35.80;51.20;;;;;;5010596;28;20233;-94
2022/08/24 12:57:08;;;;;;;8.90;3.88;;;35.80;50.80;;;;;;5124062;22;20291;-94
2022/08/24 12:59:40;;;;;;;5.65;3.15;;;35.80;50.90;;;;;;5029029;28;20263;-94
2022/08/24 13:02:28;;;;;;;5.70;3.40;;;35.80;51.20;;;;;;5028721;28;20270;-95
2022/08/24 13:05:05;;;;;;;6.35;2.90;;;35.80;50.60;;;;;;5016774;28;20229;-96
2022/08/24 13:10:54;;;;;;;6.43;3.30;;;35.80;50.60;;;;;;5026275;28;20193;-93
2022/08/24 13:14:06;;;;;;;6.28;3.22;;;35.90;50.50;;;;;;5028902;28;20217;-93
2022/08/24 13:17:09;;;;;;;7.53;4.32;;;36.00;50.60;;;;;;5027920;28;20276;-93
2022/08/24 13:20:18;;;;;;;8.18;4.55;;;36.10;50.60;;;;;;5015810;28;20246;-94
2022/08/24 13:23:20;;;;;;;6.65;2.97;;;36.20;50.60;;;;;;5032406;28;20212;-95
2022/08/24 13:29:01;;;;;;;9.15;2.97;;;36.40;50.00;;;;;;5031105;28;20236;-95
2022/08/24 13:31:54;;;;;;;4.13;2.78;;;36.40;49.50;;;;;;5050035;28;20274;-95
2022/08/24 13:34:40;;;;;;;7.90;4.68;;;36.40;49.40;;;;;;5051284;28;20201;-94
2022/08/24 13:37:28;;;;;;;5.03;3.15;;;36.30;49.40;;;;;;5041535;28;20203;-95
2022/08/24 13:40:10;;;;;;;6.15;3.67;;;36.30;49.30;;;;;;5036967;28;20291;-96
2022/08/24 13:43:08;;;;;;;3.55;2.15;;;36.30;49.40;;;;;;5034038;28;20201;-95
2022/08/24 13:45:41;;;;;;;7.10;4.30;;;36.30;49.70;;;;;;5031856;28;20315;-96
2022/08/24 13:48:27;;;;;;;6.32;3.17;;;36.20;49.70;;;;;;5015378;28;20303;-96
2022/08/24 13:51:19;;;;;;;5.88;3.83;;;36.20;49.30;;;;;;4994047;28;20209;-94
2022/08/24 13:54:19;;;;;;;11.02;5.70;;;36.20;48.80;;;;;;5010502;28;20252;-92
2022/08/24 13:57:03;;;;;;;8.43;4.13;;;36.10;48.90;;;;;;4997919;28;20217;-94
2022/08/24 13:59:54;;;;;;;7.50;4.25;;;36.10;48.80;;;;;;5011962;28;20201;-94
2022/08/24 14:02:31;;;;;;;10.52;6.07;;;36.00;49.30;;;;;;5012229;28;20212;-93
2022/08/24 14:05:12;;;;;;;6.18;3.28;;;35.90;49.30;;;;;;5008433;28;20231;-95
2022/08/24 14:07:54;;;;;;;6.00;3.45;;;35.90;49.60;;;;;;5008953;28;20241;-95
2022/08/24 14:10:48;;;;;;;4.75;3.28;;;35.80;49.80;;;;;;5009765;28;20213;-94
2022/08/24 14:13:31;;;;;;;6.40;3.30;;;35.70;49.60;;;;;;5009448;28;20201;-92
2022/08/24 14:19:34;;;;;;;6.78;3.28;;;35.60;50.00;;;;;;5011942;28;20207;-94
2022/08/24 14:22:15;;;;;;;5.28;3.25;;;35.50;49.70;;;;;;5013771;28;20205;-95
2022/08/24 14:24:45;;;;;;;5.95;3.45;;;35.50;49.60;;;;;;5011836;28;20247;-94
2022/08/24 14:27:44;;;;;;;4.07;2.78;;;35.50;50.10;;;;;;5013174;28;20691;-95